Worthing, SD

5:59 AM CDT on July 28, 2015 (GMT -0500)
Northside | | Change Station
CLOSE
Current Station
Personal Weather Station
Location: Lennox, SD
Elevation: 1358 ft
Nearby Weather Stations

Elev 1358 ft 43.36 °N, 96.90 °W | Updated 4 minutes ago

Rain
Rain
68.0 °F
Feels Like 68.0 °F
N
5.8
Wind Variable Wind from South

Today
High -- | Low -- °F
--% Chance of Precip.
Yesterday
High -- | Low -- °F
Precip. -- in
6:12 AM 8:53 PM
Waxing Gibbous, 89% visible
Pressure 29.68 in
Visibility 10.0 miles
Clouds Scattered Clouds 12000 ft
Overcast 18000 ft
Dew Point 68 °F
Humidity 99%
Rainfall 0.43 in
Snow Depth Not available.
UV 0 out of 12
Pollen 5.90 out of 12
Air Quality Not available.
Flu Activity Not available.
METAR KFSD 281056Z 10012G19KT 10SM SCT120 OVC180 21/19 A2971 RMK AO2 WSHFT 0952 RAE52 TSE27 PRESRR SLP050 P0002 T02110189 $

More Conditions Fewer Conditions

Pressure 29.68 in
Visibility 10.0 miles
Clouds Scattered Clouds 12000 ft
Overcast 18000 ft
Dew Point 68 °F
Humidity 99%
Rainfall 0.43 in
Snow Depth Not available.
UV 0 out of 12
Pollen 5.90 out of 12
Air Quality Not available.
Flu Activity Not available.
METAR KFSD 281056Z 10012G19KT 10SM SCT120 OVC180 21/19 A2971 RMK AO2 WSHFT 0952 RAE52 TSE27 PRESRR SLP050 P0002 T02110189 $

More Conditions Fewer Conditions

10-Day Weather Forecast

×

Almanac

Astronomy

Jul. 28, 2015 Rise Set
Actual Time
Civil Twilight
Nautical Twilight
Astronomical Twilight
Moon
Length of Visible Light
Length of Day
Tomorrow will be .
, % of the Moon is Illuminated

Today's Extremes

State Highs State Lows

Community

WunderPhotos

Upload Photos

1,841,802 photos uploaded!

WunderBlogs® & News

Nearby

Air Quality

  Air Quality AQ Index Pollutant
Not available.

Snow Depth

Station Depth Elevation

Earthquake Activity

City Distance Mag. Time & Date
Minimum magnitude displayed is 2.5.

Coastal Water Temperatures

Place Temperature

Stations

Nearby Weather Stations

Station Location Temp. Windchill Dew Point Humidity Wind Precip. Elev Updated Type